createdAt,value
2022-10-20T00:04:39.281Z,5.26
2022-10-20T00:09:44.199Z,5.22
2022-10-20T00:14:51.833Z,5.04
2022-10-20T00:19:56.609Z,4.96
2022-10-20T00:25:01.576Z,5.13
2022-10-20T00:30:10.068Z,4.89
2022-10-20T00:35:15.081Z,4.87
2022-10-20T00:40:20.065Z,4.44
2022-10-20T00:45:27.966Z,4.41
2022-10-20T00:50:36.301Z,4.62
2022-10-20T00:55:45.388Z,4.27
2022-10-20T01:00:59.014Z,4.16
2022-10-20T01:06:03.922Z,4.18
2022-10-20T01:11:18.879Z,4.31
2022-10-20T01:16:32.928Z,4.34
2022-10-20T01:21:59.058Z,4.39
2022-10-20T01:27:30.311Z,4.43
2022-10-20T01:32:42.457Z,4.23
2022-10-20T01:37:55.285Z,4.23
2022-10-20T01:43:07.543Z,4.47
2022-10-20T01:48:15.069Z,4.27
2022-10-20T01:53:19.979Z,4.43
2022-10-20T01:58:49.766Z,4.27
2022-10-20T02:03:56.996Z,4.30
2022-10-20T02:09:04.262Z,4.48
2022-10-20T02:14:15.168Z,4.50
2022-10-20T02:19:24.806Z,4.47
2022-10-20T02:24:34.915Z,4.48
2022-10-20T02:29:47.610Z,4.52
2022-10-20T02:34:52.346Z,4.57
2022-10-20T02:39:57.155Z,4.59
2022-10-20T02:45:04.973Z,4.48
2022-10-20T02:50:10.979Z,4.52
2022-10-20T02:55:15.886Z,4.52
2022-10-20T03:00:23.774Z,4.58
2022-10-20T03:05:29.963Z,4.68
2022-10-20T03:10:35.422Z,4.86
2022-10-20T03:15:42.896Z,4.87
2022-10-20T03:20:47.644Z,4.98
2022-10-20T03:25:52.546Z,5.08
2022-10-20T03:31:01.087Z,5.12
2022-10-20T03:36:06.222Z,5.16
2022-10-20T03:41:11.081Z,5.28
2022-10-20T03:46:18.750Z,5.34
2022-10-20T03:51:23.839Z,5.25
2022-10-20T03:56:31.196Z,5.28
2022-10-20T04:01:39.758Z,5.26
2022-10-20T04:06:44.826Z,5.37
2022-10-20T04:11:49.893Z,5.39
2022-10-20T04:16:57.353Z,5.21
2022-10-20T04:22:02.180Z,5.13
2022-10-20T04:27:07.476Z,5.13
2022-10-20T04:32:15.115Z,5.18
2022-10-20T04:37:19.966Z,5.26
2022-10-20T04:42:24.905Z,5.28
2022-10-20T04:47:35.151Z,5.36
2022-10-20T04:52:40.231Z,5.35
2022-10-20T04:57:45.586Z,5.41
2022-10-20T05:02:53.198Z,5.40
2022-10-20T05:07:58.806Z,5.49
2022-10-20T05:13:03.936Z,5.44
2022-10-20T05:18:11.795Z,5.48
2022-10-20T05:23:16.686Z,5.46
2022-10-20T05:28:21.729Z,5.65
2022-10-20T05:33:29.188Z,5.67
2022-10-20T05:38:35.970Z,5.64
2022-10-20T05:43:41.754Z,5.80
2022-10-20T05:48:50.704Z,5.87
2022-10-20T05:53:58.082Z,5.89
2022-10-20T05:59:04.138Z,5.89
2022-10-20T06:04:11.778Z,5.97
2022-10-20T06:09:16.903Z,5.94
2022-10-20T06:14:22.596Z,5.99
2022-10-20T06:19:30.531Z,6.18
2022-10-20T06:24:35.372Z,6.26
2022-10-20T06:29:40.445Z,6.47
2022-10-20T06:34:47.978Z,6.67
2022-10-20T06:39:55.915Z,6.79
2022-10-20T06:45:02.886Z,6.96
2022-10-20T06:50:16.593Z,7.10
2022-10-20T06:55:22.760Z,7.37
2022-10-20T07:00:27.843Z,7.54
2022-10-20T07:05:38.046Z,7.68
2022-10-20T07:10:43.276Z,7.90
2022-10-20T07:15:49.277Z,7.96
2022-10-20T07:20:59.798Z,8.09
2022-10-20T07:26:05.365Z,8.25
2022-10-20T07:31:13.159Z,8.42
2022-10-20T07:36:22.618Z,9.20
2022-10-20T07:41:28.644Z,9.91
2022-10-20T07:46:33.942Z,10.25
2022-10-20T07:51:41.410Z,10.26
2022-10-20T07:56:46.997Z,9.93
2022-10-20T08:01:54.716Z,10.48
2022-10-20T08:07:04.855Z,10.88
2022-10-20T08:12:09.708Z,11.29
2022-10-20T08:17:14.890Z,11.21
2022-10-20T08:22:22.455Z,12.43
2022-10-20T08:27:28.144Z,12.02
2022-10-20T08:32:33.159Z,12.10
2022-10-20T08:37:41.037Z,12.51
2022-10-20T08:42:48.267Z,12.93
2022-10-20T08:47:56.309Z,12.68
2022-10-20T08:53:04.634Z,12.81
2022-10-20T08:58:15.058Z,12.85
2022-10-20T09:03:24.223Z,13.32
2022-10-20T09:08:34.422Z,12.81
2022-10-20T09:13:41.750Z,13.78
2022-10-20T09:18:46.961Z,13.43
2022-10-20T09:23:57.752Z,13.65
2022-10-20T09:29:15.808Z,14.23
2022-10-20T09:34:26.485Z,14.41
2022-10-20T09:39:40.754Z,14.18
2022-10-20T09:44:54.490Z,14.47
2022-10-20T09:50:02.171Z,13.65
2022-10-20T09:55:23.229Z,13.96
2022-10-20T10:00:38.782Z,13.49
2022-10-20T10:05:47.299Z,14.10
2022-10-20T10:11:05.576Z,13.87
2022-10-20T10:16:14.335Z,13.82
2022-10-20T10:21:20.865Z,14.02
2022-10-20T10:26:48.398Z,14.60
2022-10-20T10:31:59.702Z,14.38
2022-10-20T10:37:04.878Z,14.16
2022-10-20T10:42:30.592Z,14.05
2022-10-20T10:47:58.281Z,13.81
2022-10-20T10:53:16.789Z,13.98
2022-10-20T10:58:36.049Z,14.08
2022-10-20T11:03:59.814Z,14.86
2022-10-20T11:09:17.795Z,14.48
2022-10-20T11:14:40.138Z,14.58
2022-10-20T11:20:11.401Z,15.16
2022-10-20T11:25:28.769Z,15.30
2022-10-20T11:30:36.878Z,15.02
2022-10-20T11:35:47.150Z,15.38
2022-10-20T11:41:02.325Z,15.08
2022-10-20T11:46:15.468Z,15.82
2022-10-20T11:51:39.036Z,15.47
2022-10-20T11:57:09.158Z,15.35
2022-10-20T12:02:37.743Z,14.39
2022-10-20T12:08:24.816Z,14.69
2022-10-20T12:13:39.644Z,15.14
2022-10-20T12:19:18.165Z,15.48
2022-10-20T12:24:39.146Z,15.47
2022-10-20T12:30:31.147Z,15.12
2022-10-20T12:36:03.978Z,15.20
2022-10-20T12:41:12.690Z,14.96
2022-10-20T12:46:23.372Z,15.65
2022-10-20T12:51:41.016Z,15.51
2022-10-20T12:56:48.832Z,15.49
2022-10-20T13:02:23.790Z,15.18
2022-10-20T13:08:07.310Z,15.01
2022-10-20T13:13:42.363Z,14.87
2022-10-20T13:18:50.766Z,15.19
2022-10-20T13:24:02.215Z,15.50
2022-10-20T13:29:17.144Z,15.48
2022-10-20T13:34:28.182Z,16.05
2022-10-20T13:39:41.778Z,15.04
2022-10-20T13:45:01.474Z,15.03
2022-10-20T13:50:13.271Z,15.02
2022-10-20T13:55:23.047Z,14.23
2022-10-20T14:00:33.249Z,13.76
2022-10-20T14:05:42.928Z,13.77
2022-10-20T14:10:52.920Z,13.46
2022-10-20T14:16:02.676Z,13.76
2022-10-20T14:21:09.211Z,14.16
2022-10-20T14:26:18.603Z,14.09
2022-10-20T14:31:27.894Z,13.58
2022-10-20T14:36:33.867Z,13.63
2022-10-20T14:41:39.503Z,13.48
2022-10-20T14:46:49.922Z,13.58
2022-10-20T14:51:59.776Z,13.46
2022-10-20T14:57:26.249Z,13.35
2022-10-20T15:02:38.601Z,12.95
2022-10-20T15:07:44.125Z,12.80
2022-10-20T15:12:53.209Z,12.76
2022-10-20T15:18:18.615Z,12.51
2022-10-20T15:23:25.503Z,12.70
2022-10-20T15:28:36.577Z,12.59
2022-10-20T15:33:44.722Z,12.29
2022-10-20T15:38:50.109Z,12.12
2022-10-20T15:43:55.226Z,12.22
2022-10-20T15:49:02.737Z,12.02
2022-10-20T15:54:07.998Z,11.87
2022-10-20T15:59:12.840Z,11.82
2022-10-20T16:04:26.447Z,11.73
2022-10-20T16:09:31.518Z,11.39
2022-10-20T16:14:38.157Z,11.28
2022-10-20T16:19:45.946Z,11.31
2022-10-20T16:24:50.912Z,11.19
2022-10-20T16:29:55.773Z,11.00
2022-10-20T16:35:03.176Z,10.96
2022-10-20T16:40:09.043Z,10.99
2022-10-20T16:45:14.192Z,11.13
2022-10-20T16:50:21.726Z,10.88
2022-10-20T16:55:26.548Z,10.71
2022-10-20T17:00:31.362Z,10.93
2022-10-20T17:05:38.744Z,10.79
2022-10-20T17:10:43.888Z,10.90
2022-10-20T17:15:48.808Z,10.89
2022-10-20T17:20:59.028Z,10.71
2022-10-20T17:26:05.037Z,10.77
2022-10-20T17:31:11.534Z,10.78
2022-10-20T17:36:19.013Z,10.86
2022-10-20T17:41:23.891Z,10.85
2022-10-20T17:46:28.655Z,10.96
2022-10-20T17:51:36.986Z,10.91
2022-10-20T17:56:42.179Z,10.91
2022-10-20T18:01:47.066Z,10.91
2022-10-20T18:06:54.697Z,10.79
2022-10-20T18:12:00.014Z,10.79
2022-10-20T18:17:05.014Z,10.80
2022-10-20T18:22:12.428Z,10.85
2022-10-20T18:27:17.178Z,10.79
2022-10-20T18:32:21.938Z,10.87
2022-10-20T18:37:29.412Z,10.84
2022-10-20T18:42:34.474Z,10.59
2022-10-20T18:47:41.613Z,10.58
2022-10-20T18:52:52.171Z,10.65
2022-10-20T18:57:57.450Z,10.64
2022-10-20T19:03:04.332Z,10.60
2022-10-20T19:08:11.733Z,10.70
2022-10-20T19:13:17.003Z,10.60
2022-10-20T19:18:22.042Z,10.67
2022-10-20T19:23:30.272Z,10.72
2022-10-20T19:28:38.203Z,10.75
2022-10-20T19:33:43.471Z,10.67
2022-10-20T19:38:51.384Z,10.56
2022-10-20T19:43:56.337Z,10.64
2022-10-20T19:49:02.140Z,10.72
2022-10-20T19:54:10.677Z,10.55
2022-10-20T19:59:15.615Z,10.55
2022-10-20T20:04:20.663Z,10.58
2022-10-20T20:09:30.034Z,10.55
2022-10-20T20:14:37.098Z,10.57
2022-10-20T20:19:45.074Z,10.54
2022-10-20T20:24:52.520Z,10.43
2022-10-20T20:29:59.132Z,10.44
2022-10-20T20:40:12.966Z,10.26
2022-10-20T20:45:18.526Z,10.27
2022-10-20T20:50:23.395Z,10.36
2022-10-20T20:55:30.893Z,10.39
2022-10-20T21:00:35.709Z,10.39
2022-10-20T21:05:40.582Z,10.37
2022-10-20T21:10:47.993Z,10.36
2022-10-20T21:15:52.757Z,10.28
2022-10-20T21:20:57.925Z,10.33
2022-10-20T21:26:05.323Z,10.29
2022-10-20T21:31:12.109Z,10.26
2022-10-20T21:36:18.767Z,10.15
2022-10-20T21:41:28.444Z,10.36
2022-10-20T21:46:35.943Z,10.45
2022-10-20T21:51:42.428Z,10.38
2022-10-20T21:56:50.484Z,10.35
2022-10-20T22:01:56.906Z,10.37
2022-10-20T22:07:02.039Z,10.45
2022-10-20T22:12:09.608Z,10.47
2022-10-20T22:17:14.777Z,10.64
2022-10-20T22:22:19.663Z,10.77
2022-10-20T22:27:41.591Z,10.71
2022-10-20T22:32:46.854Z,10.59
2022-10-20T22:37:51.644Z,10.64
2022-10-20T22:42:59.009Z,10.58
2022-10-20T22:48:03.919Z,10.64
2022-10-20T22:53:08.912Z,10.62
2022-10-20T22:58:16.336Z,10.51
2022-10-20T23:03:21.016Z,10.55
2022-10-20T23:08:27.385Z,10.46
2022-10-20T23:13:38.630Z,10.53
2022-10-20T23:18:43.716Z,10.47
2022-10-20T23:23:49.254Z,10.56
2022-10-20T23:28:56.668Z,10.51
2022-10-20T23:34:01.663Z,10.52
2022-10-20T23:39:06.718Z,10.50
2022-10-20T23:44:14.084Z,10.51
2022-10-20T23:49:18.878Z,10.48
2022-10-20T23:54:23.909Z,10.57
2022-10-20T23:59:31.255Z,10.58
